Latest Weather Observations for Port Lincoln Airport

IDS60801

Issued at 1:33 am CST Sunday 24 September 2017 (issued every 30 minutes, with the page automatically refreshed every 10 minutes)

About weather observations | Map of weather stations | Latest weather observations for SA | Other Formats
Station Details ID: 018192 Name: PORT LINCOLN AWS Lat: -34.60 Lon: 135.88 Height: 8.5 m
Data from the previous 72 hours. | See also: Recent months at Port Lincoln Airport
Date/Time
CST
Temp
°C
App
Temp
°C
Dew
Point
°C
Rel
Hum
%
Delta-T
°C
Wind Press
QNH
hPa
Press
MSL
hPa
Rain since
9am
mm
Dir  Spd
km/h
Gust
km/h
Spd
kts
Gust
kts
24/01:30am 12.5 8.1 9.1 80 1.7 W 22 32 12 17 1003.7 1003.7 0.0
24/01:00am 12.7 7.9 9.0 78 1.9 WNW 24 33 13 18 1003.8 1003.8 0.0
24/12:30am 12.5 8.2 9.3 81 1.6 WNW 22 28 12 15 1004.2 1004.2 0.0
24/12:00am 12.5 8.2 9.3 81 1.6 WNW 22 28 12 15 1004.0 1004.0 0.0
 
Date/Time
CST
Temp
°C
App
Temp
°C
Dew
Point
°C
Rel
Hum
%
Delta-T
°C
Wind Press
QNH
hPa
Press
MSL
hPa
Rain since
9am
mm
Dir  Spd
km/h
Gust
km/h
Spd
kts
Gust
kts
23/11:30pm 13.1 7.7 9.5 79 1.8 WNW 28 39 15 21 1004.2 1004.2 0.0
23/11:00pm 12.9 7.5 9.4 79 1.8 WNW 28 35 15 19 1004.0 1004.0 0.0
23/10:30pm 12.8 6.8 8.7 76 2.1 W 30 39 16 21 1003.9 1003.9 0.0
23/10:02pm 13.1 5.5 9.2 77 2.0 W 39 57 21 31 1004.1 1004.1 0.0
23/10:00pm 13.2 5.3 9.3 77 2.0 W 41 57 22 31 1004.1 1004.1 0.0
23/09:37pm 14.7 7.3 9.7 72 2.6 WNW 39 61 21 33 1004.5 1004.5 0.0
23/09:30pm 14.6 8.1 10.2 75 2.3 NW 35 48 19 26 1004.1 1004.1 0.0
23/09:17pm 14.7 7.8 10.3 75 2.3 NW 37 56 20 30 1003.9 1003.9 0.0
23/09:00pm 14.6 7.8 10.6 77 2.1 NW 37 48 20 26 1003.8 1003.8 0.0
23/08:30pm 14.8 8.2 11.4 80 1.8 NW 37 50 20 27 1003.7 1003.7 0.0
23/08:11pm 14.7 9.6 11.8 83 1.6 NW 30 54 16 29 1003.5 1003.5 0.0
23/08:00pm 14.1 10.0 11.6 85 1.3 NW 24 33 13 18 1003.7 1003.7 0.0
23/07:30pm 14.9 9.1 10.9 77 2.1 NW 32 41 17 22 1003.6 1003.6 0.0
23/07:00pm 14.7 9.6 10.7 77 2.1 NW 28 37 15 20 1003.3 1003.3 0.0
23/06:30pm 14.6 8.7 10.6 77 2.1 NW 32 41 17 22 1003.2 1003.2 0.0
23/06:03pm 14.9 9.8 10.7 76 2.2 WNW 28 46 15 25 1003.0 1003.0 0.0
23/06:00pm 14.8 8.9 10.6 76 2.2 WNW 32 46 17 25 1003.0 1003.0 0.0
23/05:30pm 15.2 8.9 11.0 76 2.2 WNW 35 50 19 27 1002.6 1002.6 0.0
23/05:01pm 15.6 8.8 10.6 72 2.6 WNW 37 56 20 30 1002.5 1002.5 0.0
23/05:00pm 15.7 9.2 10.5 71 2.7 WNW 35 52 19 28 1002.5 1002.5 0.0
23/04:30pm 16.7 8.8 9.4 62 3.8 WNW 41 59 22 32 1002.0 1002.0 0.0
23/04:05pm 17.0 8.9 9.9 63 3.7 WNW 43 61 23 33 1001.8 1001.8 0.0
23/04:00pm 17.4 8.9 9.3 59 4.2 WNW 44 61 24 33 1001.7 1001.7 0.0
23/03:35pm 17.0 9.5 10.8 67 3.3 WNW 41 59 22 32 1001.6 1001.6 0.0
23/03:30pm 16.9 10.3 11.4 70 3.0 WNW 37 50 20 27 1001.6 1001.6 0.0
23/03:09pm 17.3 9.2 10.2 63 3.8 WNW 43 63 23 34 1001.5 1001.5 0.0
23/03:00pm 17.1 10.3 11.8 71 2.9 WNW 39 54 21 29 1001.5 1001.5 0.0
23/02:30pm 17.4 7.9 9.8 61 4.0 WNW 50 72 27 39 1001.2 1001.2 0.0
23/02:02pm 18.1 9.0 10.0 59 4.3 WNW 48 67 26 36 1001.0 1001.0 0.0
23/02:00pm 18.3 8.9 10.2 59 4.3 WNW 50 67 27 36 1000.9 1000.9 0.0
23/01:30pm 18.0 9.0 10.4 61 4.1 WNW 48 70 26 38 1000.8 1000.8 0.0
23/01:02pm 18.6 10.6 11.2 62 4.0 WNW 44 63 24 34 1000.6 1000.6 0.0
23/01:00pm 18.9 10.7 11.7 63 4.0 WNW 46 63 25 34 1000.6 1000.6 0.0
23/12:30pm 18.3 8.4 9.6 57 4.6 WNW 52 72 28 39 1000.3 1000.3 0.0
23/12:10pm 18.5 9.4 11.3 63 3.9 WNW 50 69 27 37 1000.2 1000.2 0.0
23/12:00pm 18.4 8.7 10.5 60 4.3 WNW 52 69 28 37 1000.1 1000.1 0.0
23/11:31am 18.3 8.9 10.2 59 4.3 WNW 50 69 27 37 1000.0 1000.0 0.0
23/11:30am 18.6 9.9 11.2 62 4.1 WNW 48 63 26 34 1000.0 1000.0 0.0
23/11:01am 18.8 9.3 11.1 61 4.2 WNW 52 70 28 38 999.4 999.4 0.0
23/11:00am 18.7 8.7 10.8 60 4.3 WNW 54 70 29 38 999.4 999.4 0.0
23/10:30am 18.8 9.6 12.1 65 3.7 WNW 52 70 28 38 999.1 999.1 0.0
23/10:09am 18.6 9.4 10.9 61 4.2 WNW 50 69 27 37 998.8 998.8 0.0
23/10:00am 18.7 9.3 10.0 57 4.6 WNW 50 65 27 35 998.8 998.8 0.0
23/09:34am 18.6 9.6 11.7 64 3.8 WNW 50 70 27 38 998.6 998.6 0.0
23/09:30am 18.5 9.6 12.0 66 3.6 WNW 50 65 27 35 998.6 998.6 0.0
23/09:26am 18.3 9.2 11.4 64 3.8 WNW 50 65 27 35 998.6 998.6 0.0
23/09:10am 18.8 12.8 13.2 70 3.2 NW 37 61 20 33 998.5 998.5 0.0
23/09:00am 18.1 13.0 13.0 72 2.9 NW 32 43 17 23 998.4 998.4 0.2
23/08:30am 18.0 13.3 13.3 74 2.7 NW 30 41 16 22 998.1 998.1 0.2
23/08:00am 16.1 14.2 13.0 82 1.7 NNW 15 24 8 13 997.5 997.5 0.2
23/07:30am 14.6 13.7 12.5 87 1.2 NW 9 15 5 8 997.9 997.9 0.2
23/07:00am 13.8 12.1 12.4 91 0.8 NW 13 17 7 9 997.7 997.7 0.2
23/06:30am 13.0 10.7 11.9 93 0.6 WNW 15 19 8 10 997.4 997.4 0.2
23/06:00am 12.6 11.1 12.0 96 0.3 NNW 11 15 6 8 997.1 997.1 0.2
23/05:30am 11.8 10.5 11.3 97 0.3 NW 9 13 5 7 996.9 996.9 0.2
23/05:00am 11.6 10.6 11.0 96 0.3 NW 7 9 4 5 997.2 997.2 0.2
23/04:30am 12.4 11.8 11.6 95 0.4 NNW 6 11 3 6 997.0 997.0 0.2
23/04:00am 13.2 12.6 12.4 95 0.4 SW 7 11 4 6 997.6 997.6 0.2
23/03:30am 12.7 11.7 12.2 97 0.3 WNW 9 13 5 7 997.8 997.8 0.2
23/03:00am 13.5 13.3 13.0 97 0.3 SSW 6 13 3 7 997.8 997.8 0.2
23/02:30am 13.8 11.7 13.5 98 0.2 SSW 17 22 9 12 998.3 998.3 0.2
23/02:00am 12.6 11.1 12.0 96 0.3 NNE 11 13 6 7 998.2 998.2 0.2
23/01:30am 13.1 13.8 12.3 95 0.4 CALM 0 6 0 3 999.2 999.2 0.2
23/01:00am 13.7 13.8 12.8 94 0.5 SW 4 11 2 6 1000.3 1000.3 0.2
23/12:30am 14.7 14.5 13.6 93 0.6 SW 7 17 4 9 1000.2 1000.2 0.0
23/12:00am 15.2 11.1 13.7 91 0.8 SSW 28 48 15 26 1000.2 1000.2 0.0
 
Date/Time
CST
Temp
°C
App
Temp
°C
Dew
Point
°C
Rel
Hum
%
Delta-T
°C
Wind Press
QNH
hPa
Press
MSL
hPa
Rain since
9am
mm
Dir  Spd
km/h
Gust
km/h
Spd
kts
Gust
kts
22/11:57pm 14.9 11.6 13.9 94 0.6 SW 24 48 13 26 1000.8 1000.8 0.0
22/11:53pm 14.7 12.1 13.7 94 0.6 N 20 41 11 22 1000.7 1000.7 0.0
22/11:30pm 14.0 12.2 13.4 96 0.3 NNE 15 20 8 11 998.8 998.8 0.0
22/11:00pm 13.1 12.2 12.6 97 0.3 NNE 9 15 5 8 999.2 999.2 0.0
22/10:30pm 12.1 11.2 11.3 95 0.4 N 7 9 4 5 1000.5 1000.5 0.0
22/10:00pm 12.6 11.7 11.3 92 0.7 SSE 7 13 4 7 1001.4 1001.4 0.0
22/09:30pm 14.6 13.5 13.1 91 0.8 WSW 11 15 6 8 1003.3 1003.3 0.0
22/09:00pm 15.3 15.2 13.2 87 1.2 W 6 9 3 5 1003.8 1003.8 0.0
22/08:30pm 15.0 14.5 12.7 86 1.3 NE 7 11 4 6 1003.5 1003.5 0.0
22/08:00pm 15.8 14.5 12.5 81 1.8 WSW 11 22 6 12 1003.1 1003.1 0.0
22/07:30pm 15.5 14.4 11.9 79 2.0 WSW 9 13 5 7 1001.9 1001.9 0.0
22/07:00pm 17.2 16.5 13.3 78 2.2 WSW 9 13 5 7 1001.4 1001.4 0.0
22/06:30pm 17.3 16.7 12.2 72 2.8 WNW 7 11 4 6 1001.4 1001.4 0.0
22/06:00pm 19.2 17.5 12.5 65 3.8 WNW 13 17 7 9 1001.3 1001.3 0.0
22/05:30pm 20.8 18.4 12.8 60 4.6 W 17 22 9 12 1001.1 1001.1 0.0
22/05:00pm 21.9 19.0 12.2 54 5.5 W 19 26 10 14 1001.0 1001.0 0.0
22/04:30pm 22.7 19.4 12.9 54 5.6 WNW 22 32 12 17 1001.2 1001.2 0.0
22/04:00pm 23.0 18.3 12.0 50 6.2 WNW 28 37 15 20 1001.2 1001.2 0.0
22/03:30pm 23.5 18.2 12.5 50 6.3 WNW 32 44 17 24 1001.3 1001.3 0.0
22/03:00pm 23.0 17.4 12.0 50 6.2 NW 33 43 18 23 1001.6 1001.6 0.0
22/02:30pm 23.1 15.5 10.5 45 7.0 NW 41 50 22 27 1001.7 1001.7 0.0
22/02:00pm 24.8 17.8 11.4 43 7.6 WNW 39 50 21 27 1001.8 1001.8 0.0
22/01:44pm 24.7 19.0 11.3 43 7.5 WNW 32 50 17 27 1002.0 1002.0 0.0
22/01:30pm 26.5 20.4 11.8 40 8.5 WNW 35 46 19 25 1002.1 1002.1 0.0
22/01:00pm 28.2 19.8 9.5 31 10.4 WNW 44 63 24 34 1002.0 1002.0 0.0
22/12:36pm 29.0 21.4 9.2 29 11.0 NW 39 59 21 32 1002.1 1002.1 0.0
22/12:30pm 28.8 21.8 10.0 31 10.6 NW 37 52 20 28 1002.1 1002.1 0.0
22/12:00pm 27.7 22.3 12.1 38 9.1 NW 32 46 17 25 1002.5 1002.5 0.0
22/11:51am 27.8 22.8 12.2 38 9.0 NNW 30 48 16 26 1002.6 1002.6 0.0
22/11:30am 27.7 21.8 11.3 36 9.4 NNW 33 44 18 24 1002.8 1002.8 0.0
22/11:00am 27.2 22.0 12.8 41 8.4 NNW 32 41 17 22 1002.9 1002.9 0.0
22/10:30am 26.5 20.8 11.0 38 8.8 NNW 32 44 17 24 1003.0 1003.0 0.0
22/10:12am 26.7 21.7 10.8 37 9.0 NNW 28 46 15 25 1003.2 1003.2 0.0
22/10:00am 26.1 22.6 12.2 42 8.0 N 22 32 12 17 1003.3 1003.3 0.0
22/09:30am 22.2 21.1 13.0 56 5.3 ENE 11 15 6 8 1003.9 1003.9 0.0
22/09:00am 19.6 17.8 13.3 67 3.6 NE 15 17 8 9 1004.4 1004.4 0.0
22/08:30am 19.5 17.8 12.5 64 3.9 NNE 13 19 7 10 1004.7 1004.7 0.0
22/08:00am 15.7 15.5 13.0 84 1.5 ESE 6 9 3 5 1004.9 1004.9 0.0
22/07:30am 13.2 12.4 11.6 90 0.9 ESE 7 11 4 6 1004.8 1004.8 0.0
22/07:00am 10.7 10.2 9.5 92 0.6 ENE 2 7 1 4 1004.8 1004.8 0.0
22/06:30am 10.0 8.6 8.8 92 0.6 NE 6 9 3 5 1005.1 1005.1 0.0
22/06:00am 9.9 7.8 8.3 90 0.8 N 9 11 5 6 1005.5 1005.5 0.0
22/05:30am 9.5 6.9 7.8 89 0.8 N 11 15 6 8 1005.4 1005.4 0.0
22/05:00am 9.7 6.7 7.8 88 0.9 N 13 15 7 8 1005.6 1005.6 0.0
22/04:30am 9.1 6.1 7.7 91 0.7 N 13 17 7 9 1005.6 1005.6 0.0
22/04:00am 9.7 7.1 7.6 87 1.0 N 11 15 6 8 1005.8 1005.8 0.0
22/03:30am 10.0 8.5 8.6 91 0.7 NNE 6 9 3 5 1006.0 1006.0 0.0
22/03:00am 9.9 9.3 8.8 93 0.5 NNE 2 7 1 4 1006.6 1006.6 0.0
22/02:30am 9.6 7.9 8.4 92 0.6 N 7 9 4 5 1007.0 1007.0 0.0
22/02:00am 9.5 7.4 8.1 91 0.7 N 9 9 5 5 1007.7 1007.7 0.0
22/01:30am 9.0 6.2 7.1 88 0.9 N 11 13 6 7 1008.5 1008.5 0.0
22/01:00am 9.4 7.6 7.2 86 1.0 N 6 7 3 4 1009.0 1009.0 0.0
22/12:30am 9.9 8.1 7.8 87 1.0 N 7 11 4 6 1009.3 1009.3 0.0
22/12:00am 10.4 8.9 9.2 92 0.6 N 7 11 4 6 1009.8 1009.8 0.0
 
Date/Time
CST
Temp
°C
App
Temp
°C
Dew
Point
°C
Rel
Hum
%
Delta-T
°C
Wind Press
QNH
hPa
Press
MSL
hPa
Rain since
9am
mm
Dir  Spd
km/h
Gust
km/h
Spd
kts
Gust
kts
21/11:30pm 9.5 7.9 8.9 96 0.3 NNW 7 9 4 5 1010.0 1010.0 0.0
21/11:00pm 9.4 7.4 8.6 95 0.4 NNW 9 9 5 5 1010.6 1010.6 0.0
21/10:30pm 9.7 8.3 8.8 94 0.4 N 6 7 3 4 1010.8 1010.8 0.0
21/10:00pm 10.0 8.6 9.4 96 0.3 N 7 9 4 5 1011.0 1011.0 0.0
21/09:30pm 8.8 7.0 7.9 94 0.4 NNW 7 7 4 4 1011.3 1011.3 0.0
21/09:00pm 9.4 7.9 8.3 93 0.5 NNW 6 7 3 4 1011.6 1011.6 0.0
21/08:30pm 9.5 8.0 8.4 93 0.5 N 6 7 3 4 1011.7 1011.7 0.0
21/08:00pm 10.1 8.7 8.7 91 0.7 N 6 7 3 4 1011.5 1011.5 0.0
21/07:30pm 11.2 9.8 9.5 89 0.9 NNE 7 9 4 5 1010.9 1010.9 0.0
21/07:00pm 12.2 10.9 10.1 87 1.1 NE 7 9 4 5 1010.9 1010.9 0.0
21/06:30pm 12.7 11.5 10.2 85 1.3 NE 7 11 4 6 1010.8 1010.8 0.0
21/06:00pm 13.8 12.0 10.8 82 1.6 NE 11 15 6 8 1010.4 1010.4 0.0
21/05:30pm 14.8 12.7 11.0 78 2.0 ENE 13 17 7 9 1010.4 1010.4 0.0
21/05:00pm 15.3 12.4 10.9 75 2.3 ENE 17 20 9 11 1010.2 1010.2 0.0
21/04:30pm 15.9 13.4 10.9 72 2.7 E 15 20 8 11 1010.3 1010.3 0.0
21/04:00pm 16.3 13.5 11.2 72 2.7 SE 17 20 9 11 1010.4 1010.4 0.0
21/03:30pm 16.8 14.0 11.5 71 2.9 ESE 17 22 9 12 1010.4 1010.4 0.0
21/03:00pm 17.2 15.3 11.7 70 3.0 SE 13 17 7 9 1010.5 1010.5 0.0
21/02:30pm 16.8 14.2 11.9 73 2.7 ENE 17 20 9 11 1010.3 1010.3 0.0
21/02:00pm 17.0 13.8 11.9 72 2.8 E 20 24 11 13 1010.2 1010.2 0.0
21/01:30pm 17.2 14.4 11.5 69 3.1 E 17 22 9 12 1010.5 1010.5 0.0
21/01:00pm 17.4 15.4 11.4 68 3.3 SE 13 17 7 9 1010.8 1010.8 0.0
21/12:30pm 17.6 15.6 11.6 68 3.3 SE 13 19 7 10 1011.1 1011.1 0.0
21/12:00pm 17.1 14.1 10.7 66 3.4 SSE 17 22 9 12 1011.3 1011.3 0.0
21/11:30am 17.0 14.1 11.1 68 3.2 SSE 17 20 9 11 1011.6 1011.6 0.0
21/11:00am 16.5 13.2 9.4 63 3.7 SSE 17 22 9 12 1011.6 1011.6 0.0
21/10:30am 16.1 13.5 9.5 65 3.4 SSE 13 17 7 9 1011.9 1011.9 0.0
21/10:00am 16.4 15.0 10.9 70 2.9 SSE 9 13 5 7 1012.0 1012.0 0.0
21/09:30am 16.3 15.4 11.5 73 2.6 SSE 7 11 4 6 1011.7 1011.7 0.0
21/09:00am 15.3 13.5 10.9 75 2.3 S 11 17 6 9 1011.5 1011.5 0.0
21/08:30am 14.7 13.2 10.5 76 2.2 SSW 9 13 5 7 1011.5 1011.5 0.0
21/08:00am 14.1 12.6 10.7 80 1.8 SW 9 13 5 7 1011.4 1011.4 0.0
21/07:30am 12.9 11.5 11.0 88 1.0 W 9 13 5 7 1011.5 1011.5 0.0
21/07:00am 11.4 8.3 10.3 93 0.6 WSW 17 20 9 11 1011.2 1011.2 0.0
21/06:30am 9.8 6.7 9.0 95 0.4 WSW 15 17 8 9 1011.0 1011.0 0.0
21/06:00am 11.0 9.7 10.1 94 0.5 W 7 9 4 5 1010.8 1010.8 0.0
21/05:36am 11.5 10.3 10.2 92 0.7 WSW 7 9 4 5 1010.6 1010.6 0.0
21/05:30am 11.7 10.4 10.1 90 0.8 WSW 7 9 4 5 1010.5 1010.5 0.0
21/05:00am 13.4 11.8 11.6 89 1.0 WSW 11 17 6 9 1010.2 1010.2 0.0
21/04:30am 13.5 10.9 11.9 90 0.9 SW 17 20 9 11 1009.8 1009.8 0.0
21/04:00am 13.0 11.9 12.1 94 0.5 WSW 9 13 5 7 1009.4 1009.4 0.0
21/03:50am 12.8 10.5 11.9 94 0.5 W 15 20 8 11 1009.1 1009.1 0.0
21/03:30am 12.5 9.8 11.6 94 0.5 W 17 20 9 11 1009.0 1009.0 0.0
21/03:19am 12.9 12.1 11.8 93 0.6 NW 7 11 4 6 1009.1 1009.1 0.0
21/03:00am 13.1 11.3 12.0 93 0.6 W 13 19 7 10 1009.0 1009.0 0.0
21/02:37am 12.8 12.8 11.0 89 0.9 WSW 2 9 1 5 1009.0 1009.0 0.0
21/02:30am 13.0 11.7 11.1 88 1.0 SW 9 19 5 10 1008.9 1008.9 0.0
21/02:00am 13.2 11.1 11.3 88 1.0 WSW 13 19 7 10 1008.9 1008.9 0.0

Other Formats:

Comma delimited format used in spreadsheet applications
http://www.bom.gov.au/fwo/IDS60801/IDS60801.95661.axf

JavaScript Object Notation format (JSON) in row-major order
http://www.bom.gov.au/fwo/IDS60801/IDS60801.95661.json